createdAt,value
2018-12-25T00:01:48.557Z,77.10
2018-12-25T00:04:16.713Z,77.50
2018-12-25T00:06:44.925Z,77.90
2018-12-25T00:09:13.045Z,78.30
2018-12-25T00:11:41.266Z,78.70
2018-12-25T00:14:09.397Z,79.10
2018-12-25T00:16:37.596Z,79.50
2018-12-25T00:19:06.530Z,80.00
2018-12-25T00:21:34.660Z,80.40
2018-12-25T00:24:02.817Z,80.70
2018-12-25T00:26:32.980Z,80.80
2018-12-25T00:29:04.025Z,80.60
2018-12-25T00:31:32.208Z,80.30
2018-12-25T00:34:00.348Z,80.00
2018-12-25T00:36:28.724Z,79.60
2018-12-25T00:38:56.909Z,79.20
2018-12-25T00:41:25.088Z,78.60
2018-12-25T00:43:53.230Z,78.20
2018-12-25T00:46:21.482Z,76.70
2018-12-25T00:48:49.629Z,76.60
2018-12-25T00:51:17.765Z,76.10
2018-12-25T00:53:45.941Z,75.70
2018-12-25T00:56:14.349Z,75.20
2018-12-25T00:58:42.532Z,74.40
2018-12-25T01:01:10.770Z,73.00
2018-12-25T01:03:39.802Z,72.30
2018-12-25T01:06:07.998Z,70.70
2018-12-25T01:08:36.106Z,69.30
2018-12-25T01:11:04.289Z,67.80
2018-12-25T01:13:32.405Z,67.00
2018-12-25T01:16:00.685Z,66.30
2018-12-25T01:18:28.929Z,65.80
2018-12-25T01:20:57.177Z,65.10
2018-12-25T01:23:25.397Z,64.20
2018-12-25T01:25:54.494Z,63.30
2018-12-25T01:28:22.760Z,62.80
2018-12-25T01:30:51.813Z,61.90
2018-12-25T01:33:20.137Z,61.80
2018-12-25T01:35:48.695Z,61.20
2018-12-25T01:38:16.979Z,61.20
2018-12-25T01:40:45.226Z,60.90
2018-12-25T01:43:13.524Z,60.40
2018-12-25T01:45:41.749Z,60.30
2018-12-25T01:48:10.028Z,59.70
2018-12-25T01:50:38.244Z,59.60
2018-12-25T01:53:06.942Z,59.60
2018-12-25T01:55:35.169Z,60.10
2018-12-25T01:58:03.266Z,61.50
2018-12-25T02:00:31.481Z,62.10
2018-12-25T02:02:59.648Z,62.80
2018-12-25T02:05:27.876Z,62.80
2018-12-25T02:07:56.042Z,63.10
2018-12-25T02:10:24.252Z,63.10
2018-12-25T02:12:52.580Z,63.40
2018-12-25T02:15:20.759Z,63.50
2018-12-25T02:17:48.904Z,63.70
2018-12-25T02:20:17.170Z,64.10
2018-12-25T02:22:45.483Z,64.10
2018-12-25T02:25:13.714Z,64.40
2018-12-25T02:27:41.868Z,64.70
2018-12-25T02:30:09.996Z,65.00
2018-12-25T02:32:38.476Z,65.00
2018-12-25T02:35:06.757Z,65.30
2018-12-25T02:37:34.984Z,65.70
2018-12-25T02:40:03.436Z,65.70
2018-12-25T02:42:31.531Z,65.80
2018-12-25T02:44:59.746Z,65.80
2018-12-25T02:47:28.150Z,66.00
2018-12-25T02:49:56.289Z,66.10
2018-12-25T02:52:24.463Z,66.20
2018-12-25T02:54:52.581Z,66.20
2018-12-25T02:57:20.724Z,66.20
2018-12-25T02:59:48.873Z,65.90
2018-12-25T03:02:17.015Z,65.60
2018-12-25T03:04:45.285Z,65.50
2018-12-25T03:07:13.512Z,65.50
2018-12-25T03:09:42.184Z,65.60
2018-12-25T03:12:10.400Z,65.70
2018-12-25T03:14:38.601Z,66.10
2018-12-25T03:17:06.790Z,66.50
2018-12-25T03:19:35.025Z,66.70
2018-12-25T03:22:04.046Z,66.90
2018-12-25T03:24:32.221Z,67.20
2018-12-25T03:27:00.356Z,67.40
2018-12-25T03:29:28.584Z,67.50
2018-12-25T03:31:56.749Z,67.70
2018-12-25T03:34:24.960Z,67.70
2018-12-25T03:36:53.211Z,67.50
2018-12-25T03:39:21.439Z,67.30
2018-12-25T03:41:49.889Z,67.10
2018-12-25T03:44:18.049Z,66.80
2018-12-25T03:46:46.325Z,66.70
2018-12-25T03:49:14.422Z,66.60
2018-12-25T03:51:43.637Z,66.40
2018-12-25T03:54:11.819Z,65.80
2018-12-25T03:56:40.061Z,65.80
2018-12-25T03:59:08.260Z,65.80
2018-12-25T04:01:36.392Z,65.80
2018-12-25T04:04:04.530Z,66.20
2018-12-25T04:06:32.745Z,66.50
2018-12-25T04:09:00.850Z,67.10
2018-12-25T04:11:29.065Z,67.50
2018-12-25T04:13:57.148Z,67.70
2018-12-25T04:16:25.661Z,67.80
2018-12-25T04:18:53.840Z,67.90
2018-12-25T04:21:21.999Z,67.90
2018-12-25T04:23:50.101Z,68.00
2018-12-25T04:26:18.535Z,67.70
2018-12-25T04:28:47.049Z,67.80
2018-12-25T04:31:15.292Z,68.10
2018-12-25T04:33:43.364Z,68.30
2018-12-25T04:36:11.585Z,68.80
2018-12-25T04:38:40.077Z,69.00
2018-12-25T04:41:08.348Z,69.50
2018-12-25T04:43:36.530Z,69.80
2018-12-25T04:46:04.737Z,70.10
2018-12-25T04:48:32.823Z,70.30
2018-12-25T04:51:01.044Z,70.30
2018-12-25T04:53:30.450Z,70.30
2018-12-25T04:55:58.716Z,70.30
2018-12-25T04:58:27.521Z,70.30
2018-12-25T05:00:55.714Z,70.00
2018-12-25T05:03:23.898Z,69.90
2018-12-25T05:05:52.193Z,69.90
2018-12-25T05:08:20.530Z,70.00
2018-12-25T05:10:48.753Z,70.00
2018-12-25T05:13:17.343Z,70.00
2018-12-25T05:15:45.509Z,70.20
2018-12-25T05:18:13.641Z,70.20
2018-12-25T05:20:41.685Z,70.20
2018-12-25T05:23:09.815Z,70.10
2018-12-25T05:25:37.827Z,70.10
2018-12-25T05:28:05.954Z,70.00
2018-12-25T05:30:34.000Z,70.00
2018-12-25T05:33:02.092Z,70.20
2018-12-25T05:35:30.174Z,70.30
2018-12-25T05:37:58.368Z,70.40
2018-12-25T05:40:26.782Z,70.50
2018-12-25T05:42:54.923Z,70.70
2018-12-25T05:45:24.042Z,70.70
2018-12-25T05:47:52.175Z,70.90
2018-12-25T05:50:20.273Z,71.10
2018-12-25T05:52:48.689Z,71.30
2018-12-25T05:55:16.824Z,71.40
2018-12-25T05:57:44.833Z,71.60
2018-12-25T06:00:13.030Z,71.70
2018-12-25T06:02:41.165Z,71.70
2018-12-25T06:05:09.267Z,72.00
2018-12-25T06:07:37.349Z,71.90
2018-12-25T06:10:05.481Z,72.00
2018-12-25T06:12:34.176Z,72.20
2018-12-25T06:15:02.321Z,72.50
2018-12-25T06:17:31.216Z,72.50
2018-12-25T06:19:59.309Z,72.40
2018-12-25T06:22:27.390Z,72.70
2018-12-25T06:24:55.486Z,72.80
2018-12-25T06:27:23.555Z,72.90
2018-12-25T06:29:51.968Z,72.90
2018-12-25T06:32:19.993Z,73.20
2018-12-25T06:34:48.132Z,73.40
2018-12-25T06:37:16.141Z,73.70
2018-12-25T06:39:44.329Z,74.10
2018-12-25T06:42:12.343Z,74.40
2018-12-25T06:44:40.469Z,74.60
2018-12-25T06:47:08.562Z,74.50
2018-12-25T06:49:36.699Z,74.60
2018-12-25T06:52:04.844Z,74.60
2018-12-25T06:54:33.049Z,74.80
2018-12-25T06:57:01.219Z,74.80
2018-12-25T06:59:29.737Z,75.00
2018-12-25T07:01:57.829Z,75.30
2018-12-25T07:04:27.036Z,75.40
2018-12-25T07:06:55.197Z,75.50
2018-12-25T07:09:23.643Z,75.40
2018-12-25T07:11:51.885Z,75.30
2018-12-25T07:14:20.062Z,75.30
2018-12-25T07:16:48.316Z,75.10
2018-12-25T07:19:16.569Z,75.00
2018-12-25T07:21:44.797Z,74.80
2018-12-25T07:24:12.931Z,74.70
2018-12-25T07:26:41.173Z,74.40
2018-12-25T07:29:09.373Z,74.00
2018-12-25T07:31:37.908Z,73.80
2018-12-25T07:34:06.162Z,73.60
2018-12-25T07:36:34.709Z,73.40
2018-12-25T07:39:03.987Z,73.30
2018-12-25T07:41:33.069Z,72.50
2018-12-25T07:44:01.296Z,64.90
2018-12-25T07:46:29.537Z,59.50
2018-12-25T07:48:57.845Z,58.00
2018-12-25T07:51:26.354Z,54.00
2018-12-25T07:53:54.430Z,53.80
2018-12-25T07:56:22.586Z,54.00
2018-12-25T07:58:50.759Z,48.90
2018-12-25T08:01:19.047Z,49.20
2018-12-25T08:03:50.084Z,48.30
2018-12-25T08:06:18.346Z,44.40
2018-12-25T08:08:46.515Z,41.10
2018-12-25T08:11:14.656Z,40.80
2018-12-25T08:13:42.894Z,40.80
2018-12-25T08:16:11.027Z,40.60
2018-12-25T08:18:40.220Z,41.90
2018-12-25T08:21:08.412Z,44.10
2018-12-25T08:23:36.868Z,46.40
2018-12-25T08:26:05.084Z,46.70
2018-12-25T08:28:33.272Z,46.90
2018-12-25T08:31:02.253Z,46.90
2018-12-25T08:33:30.387Z,46.70
2018-12-25T08:35:58.564Z,46.70
2018-12-25T08:38:26.797Z,45.90
2018-12-25T08:40:55.040Z,46.10
2018-12-25T08:43:23.276Z,47.70
2018-12-25T08:45:51.564Z,47.90
2018-12-25T08:48:20.662Z,50.90
2018-12-25T08:50:48.992Z,60.40
2018-12-25T08:53:19.389Z,60.70
2018-12-25T08:55:47.748Z,60.80
2018-12-25T08:58:15.989Z,61.10
2018-12-25T09:00:44.128Z,61.40
2018-12-25T09:03:12.362Z,61.30
2018-12-25T09:05:40.580Z,59.50
2018-12-25T09:08:09.269Z,59.20
2018-12-25T09:10:37.509Z,58.90
2018-12-25T09:13:06.701Z,59.10
2018-12-25T09:15:35.669Z,60.70
2018-12-25T09:18:03.896Z,62.10
2018-12-25T09:20:31.989Z,62.20
2018-12-25T09:23:00.311Z,63.70
2018-12-25T09:25:28.433Z,64.50
2018-12-25T09:27:56.690Z,64.60
2018-12-25T09:30:24.870Z,65.00
2018-12-25T09:32:53.140Z,65.20
2018-12-25T09:35:21.469Z,64.80
2018-12-25T09:37:49.875Z,64.60
2018-12-25T09:40:18.077Z,63.30
2018-12-25T09:42:46.254Z,63.00
2018-12-25T09:45:14.624Z,61.60
2018-12-25T09:47:43.076Z,60.40
2018-12-25T09:50:11.736Z,60.40
2018-12-25T09:52:39.940Z,60.90
2018-12-25T09:55:08.197Z,61.20
2018-12-25T09:57:36.500Z,61.90
2018-12-25T10:00:05.187Z,62.20
2018-12-25T10:02:34.020Z,61.90
2018-12-25T10:05:02.230Z,61.60
2018-12-25T10:07:30.422Z,60.30
2018-12-25T10:09:58.684Z,60.30
2018-12-25T10:12:27.310Z,59.80
2018-12-25T10:14:55.930Z,58.40
2018-12-25T10:17:24.084Z,57.90
2018-12-25T10:19:52.428Z,56.80
2018-12-25T10:22:20.694Z,56.40
2018-12-25T10:24:49.068Z,56.70
2018-12-25T10:27:17.247Z,56.70
2018-12-25T10:29:45.758Z,56.80
2018-12-25T10:32:13.982Z,57.00
2018-12-25T10:34:42.269Z,57.20
2018-12-25T10:37:10.860Z,57.20
2018-12-25T10:39:39.093Z,56.90
2018-12-25T10:42:08.302Z,56.80
2018-12-25T10:44:36.600Z,56.50
2018-12-25T10:47:04.957Z,56.30
2018-12-25T10:49:33.248Z,56.00
2018-12-25T10:52:01.513Z,55.50
2018-12-25T10:54:29.768Z,55.10
2018-12-25T10:56:57.895Z,55.00
2018-12-25T10:59:26.877Z,54.70
2018-12-25T11:01:55.100Z,54.40
2018-12-25T11:04:23.280Z,54.10
2018-12-25T11:06:53.521Z,54.00
2018-12-25T11:09:21.888Z,53.50
2018-12-25T11:11:50.883Z,53.30
2018-12-25T11:14:19.035Z,52.50
2018-12-25T11:16:47.152Z,52.00
2018-12-25T11:19:15.316Z,51.70
2018-12-25T11:21:44.420Z,50.00
2018-12-25T11:24:12.871Z,48.00
2018-12-25T11:26:41.179Z,47.60
2018-12-25T11:29:09.416Z,47.00
2018-12-25T11:31:37.677Z,55.20
2018-12-25T11:34:05.895Z,55.50
2018-12-25T11:36:34.075Z,55.10
2018-12-25T11:39:04.188Z,54.90
2018-12-25T11:41:32.333Z,54.90
2018-12-25T11:44:00.626Z,54.50
2018-12-25T11:46:28.923Z,54.10
2018-12-25T11:48:56.949Z,54.00
2018-12-25T11:51:25.262Z,54.60
2018-12-25T11:53:53.431Z,54.60
2018-12-25T11:56:21.710Z,55.10
2018-12-25T11:58:49.933Z,55.30
2018-12-25T12:01:18.045Z,55.40
2018-12-25T12:03:46.213Z,55.40
2018-12-25T12:06:14.492Z,55.00
2018-12-25T12:08:42.732Z,54.70
2018-12-25T12:11:10.803Z,54.30
2018-12-25T12:13:39.033Z,53.90
2018-12-25T12:16:07.160Z,53.80
2018-12-25T12:18:35.370Z,53.80
2018-12-25T12:21:04.046Z,54.00
2018-12-25T12:23:32.212Z,54.30
2018-12-25T12:26:02.268Z,54.40
2018-12-25T12:28:30.841Z,51.60
2018-12-25T12:30:59.012Z,51.40
2018-12-25T12:33:27.226Z,50.40
2018-12-25T12:35:55.372Z,50.10
2018-12-25T12:38:23.567Z,48.90
2018-12-25T12:40:51.712Z,49.00
2018-12-25T12:43:19.873Z,46.80
2018-12-25T12:45:48.084Z,45.00
2018-12-25T12:48:16.181Z,44.70
2018-12-25T12:50:44.782Z,43.80
2018-12-25T12:53:12.915Z,43.70
2018-12-25T12:55:41.227Z,43.50
2018-12-25T12:58:09.533Z,43.50
2018-12-25T13:00:37.730Z,43.70
2018-12-25T13:03:06.120Z,44.50
2018-12-25T13:05:34.575Z,45.90
2018-12-25T13:08:03.059Z,47.50
2018-12-25T13:10:31.251Z,47.40
2018-12-25T13:12:59.530Z,47.60
2018-12-25T13:15:30.188Z,47.70
2018-12-25T13:17:58.993Z,47.40
2018-12-25T13:20:28.273Z,46.50
2018-12-25T13:23:00.277Z,46.30
2018-12-25T13:25:31.091Z,46.60
2018-12-25T13:28:03.641Z,46.60
2018-12-25T13:30:35.410Z,46.60
2018-12-25T13:33:08.922Z,46.70
2018-12-25T13:35:37.405Z,46.90
2018-12-25T13:38:05.866Z,47.20
2018-12-25T13:40:34.147Z,47.20
2018-12-25T13:43:02.315Z,47.40
2018-12-25T13:45:30.619Z,47.80
2018-12-25T13:47:58.884Z,48.30
2018-12-25T13:50:27.270Z,48.60
2018-12-25T13:53:02.566Z,48.60
2018-12-25T13:55:25.435Z,48.90
2018-12-25T13:57:54.028Z,49.20
2018-12-25T14:00:22.197Z,49.60
2018-12-25T14:02:51.361Z,49.80
2018-12-25T14:05:19.561Z,50.00
2018-12-25T14:07:47.660Z,50.40
2018-12-25T14:10:15.949Z,50.20
2018-12-25T14:12:45.448Z,47.40
2018-12-25T14:15:13.635Z,46.90
2018-12-25T14:17:41.830Z,47.00
2018-12-25T14:20:10.011Z,47.60
2018-12-25T14:22:38.170Z,47.70
2018-12-25T14:25:06.532Z,48.20
2018-12-25T14:27:37.460Z,48.10
2018-12-25T14:30:06.940Z,48.00
2018-12-25T14:32:35.161Z,48.10
2018-12-25T14:35:03.481Z,48.10
2018-12-25T14:37:31.904Z,48.00
2018-12-25T14:40:00.283Z,48.30
2018-12-25T14:42:28.533Z,48.40
2018-12-25T14:44:56.828Z,48.50
2018-12-25T14:47:25.092Z,48.10
2018-12-25T14:49:53.330Z,48.00
2018-12-25T14:52:21.570Z,48.00
2018-12-25T14:54:49.731Z,48.10
2018-12-25T14:57:18.266Z,48.10
2018-12-25T14:59:46.561Z,49.10
2018-12-25T15:02:14.762Z,49.20
2018-12-25T15:04:44.007Z,49.40
2018-12-25T15:07:12.377Z,49.60
2018-12-25T15:09:40.600Z,50.00
2018-12-25T15:12:08.819Z,50.60
2018-12-25T15:14:36.923Z,52.70
2018-12-25T15:17:05.218Z,53.80
2018-12-25T15:19:33.402Z,55.30
2018-12-25T15:22:02.288Z,55.30
2018-12-25T15:24:30.493Z,55.60
2018-12-25T15:26:58.918Z,56.00
2018-12-25T15:29:27.034Z,56.30
2018-12-25T15:31:55.277Z,57.00
2018-12-25T15:34:23.472Z,58.20
2018-12-25T15:36:52.633Z,58.50
2018-12-25T15:39:21.050Z,58.90
2018-12-25T15:42:45.946Z,59.50
2018-12-25T15:46:09.134Z,59.90
2018-12-25T15:48:37.380Z,60.20
2018-12-25T15:51:05.666Z,60.20
2018-12-25T15:53:37.125Z,60.20
2018-12-25T15:56:03.958Z,59.20
2018-12-25T15:58:32.331Z,59.00
2018-12-25T16:01:00.579Z,57.60
2018-12-25T16:03:28.754Z,56.80
2018-12-25T16:05:57.028Z,56.00
2018-12-25T16:08:25.641Z,55.50
2018-12-25T16:10:56.977Z,55.40
2018-12-25T16:13:26.132Z,55.40
2018-12-25T16:15:54.611Z,55.70
2018-12-25T16:18:25.554Z,56.40
2018-12-25T16:20:53.834Z,56.80
2018-12-25T16:24:07.053Z,57.10
2018-12-25T16:26:35.227Z,57.10
2018-12-25T16:29:03.287Z,57.00
2018-12-25T16:31:31.441Z,56.60
2018-12-25T16:33:59.918Z,56.50
2018-12-25T16:36:28.955Z,56.50
2018-12-25T16:39:10.796Z,56.40
2018-12-25T16:41:39.287Z,56.50
2018-12-25T16:44:08.434Z,56.50
2018-12-25T16:46:36.617Z,56.90
2018-12-25T16:49:04.693Z,57.10
2018-12-25T16:51:32.907Z,57.30
2018-12-25T16:54:00.949Z,57.30
2018-12-25T16:56:29.040Z,57.40
2018-12-25T16:58:57.197Z,57.30
2018-12-25T17:01:26.234Z,57.00
2018-12-25T17:03:54.600Z,56.50
2018-12-25T17:06:22.763Z,56.20
2018-12-25T17:08:50.928Z,56.00
2018-12-25T17:11:19.085Z,55.60
2018-12-25T17:13:47.745Z,55.80
2018-12-25T17:16:15.863Z,56.30
2018-12-25T17:18:44.084Z,56.80
2018-12-25T17:21:12.166Z,57.00
2018-12-25T17:23:40.388Z,57.50
2018-12-25T17:26:08.509Z,58.20
2018-12-25T17:28:36.701Z,60.40
2018-12-25T17:31:04.953Z,61.70
2018-12-25T17:33:33.172Z,63.30
2018-12-25T17:36:01.415Z,63.60
2018-12-25T17:38:29.641Z,63.90
2018-12-25T17:40:57.730Z,64.40
2018-12-25T17:43:25.919Z,64.80
2018-12-25T17:45:54.112Z,65.30
2018-12-25T17:48:22.405Z,66.40
2018-12-25T17:50:50.913Z,66.40
2018-12-25T17:53:19.149Z,66.60
2018-12-25T17:55:47.353Z,66.70
2018-12-25T17:58:15.890Z,67.00
2018-12-25T18:00:44.151Z,67.30
2018-12-25T18:03:13.100Z,67.30
2018-12-25T18:05:41.348Z,67.80
2018-12-25T18:08:09.547Z,68.90
2018-12-25T18:10:39.067Z,68.90
2018-12-25T18:13:07.204Z,68.70
2018-12-25T18:15:36.405Z,68.70
2018-12-25T18:18:04.689Z,68.90
2018-12-25T18:20:41.108Z,70.60
2018-12-25T18:23:09.357Z,71.80
2018-12-25T18:25:37.469Z,73.10
2018-12-25T18:28:05.701Z,73.40
2018-12-25T18:30:33.810Z,74.40
2018-12-25T18:33:02.303Z,74.70
2018-12-25T18:35:30.470Z,75.20
2018-12-25T18:37:58.679Z,75.60
2018-12-25T18:40:26.790Z,75.90
2018-12-25T18:42:55.032Z,76.20
2018-12-25T18:45:23.086Z,76.30
2018-12-25T18:47:51.231Z,76.50
2018-12-25T18:50:19.476Z,76.40
2018-12-25T18:52:47.643Z,76.20
2018-12-25T18:55:15.952Z,75.80
2018-12-25T18:57:44.033Z,75.30
2018-12-25T19:00:12.196Z,73.90
2018-12-25T19:02:41.227Z,73.20
2018-12-25T19:05:09.465Z,72.90
2018-12-25T19:07:37.761Z,72.80
2018-12-25T19:10:08.518Z,72.40
2018-12-25T19:12:36.756Z,72.30
2018-12-25T19:15:24.827Z,71.90
2018-12-25T19:17:55.041Z,71.70
2018-12-25T19:20:23.189Z,71.20
2018-12-25T19:22:52.264Z,71.00
2018-12-25T19:25:20.493Z,70.70
2018-12-25T19:27:48.641Z,70.70
2018-12-25T19:30:18.078Z,70.80
2018-12-25T19:32:46.180Z,70.80
2018-12-25T19:35:14.432Z,70.90
2018-12-25T19:37:42.548Z,71.00
2018-12-25T19:40:11.369Z,71.30
2018-12-25T19:42:39.917Z,71.50
2018-12-25T19:45:08.100Z,71.80
2018-12-25T19:47:36.344Z,72.60
2018-12-25T19:50:04.790Z,73.00
2018-12-25T19:52:32.951Z,73.40
2018-12-25T19:55:03.436Z,73.80
2018-12-25T19:57:32.071Z,74.20
2018-12-25T20:00:01.041Z,74.60
2018-12-25T20:02:29.812Z,74.80
2018-12-25T20:05:42.971Z,75.10
2018-12-25T20:08:54.433Z,75.20
2018-12-25T20:12:11.113Z,75.40
2018-12-25T20:15:26.997Z,75.10
2018-12-25T20:18:42.619Z,74.80
2018-12-25T20:21:42.439Z,74.80
2018-12-25T20:24:55.910Z,74.70
2018-12-25T20:28:20.709Z,74.90
2018-12-25T20:31:28.305Z,74.80
2018-12-25T20:34:52.224Z,75.00
2018-12-25T20:38:10.497Z,75.20
2018-12-25T20:41:09.029Z,74.90
2018-12-25T20:44:06.757Z,74.80
2018-12-25T20:47:15.541Z,74.60
2018-12-25T20:50:37.285Z,74.40
2018-12-25T20:53:48.861Z,74.50
2018-12-25T20:57:07.589Z,75.80
2018-12-25T21:00:10.928Z,75.90
2018-12-25T21:03:42.461Z,76.30
2018-12-25T21:06:53.736Z,76.80
2018-12-25T21:10:12.710Z,77.20
2018-12-25T21:13:19.112Z,77.30
2018-12-25T21:16:24.097Z,77.10
2018-12-25T21:19:30.822Z,77.20
2018-12-25T21:22:48.389Z,77.10
2018-12-25T21:25:52.398Z,76.90
2018-12-25T21:28:19.365Z,76.50
2018-12-25T21:30:47.752Z,76.50
2018-12-25T21:33:16.049Z,76.50
2018-12-25T21:35:44.325Z,76.20
2018-12-25T21:38:12.626Z,75.90
2018-12-25T21:40:40.942Z,75.60
2018-12-25T21:43:13.630Z,75.80
2018-12-25T21:45:43.893Z,75.90
2018-12-25T21:48:12.160Z,75.70
2018-12-25T21:50:40.360Z,75.40
2018-12-25T21:53:09.743Z,75.20
2018-12-25T21:55:38.959Z,75.00
2018-12-25T21:58:07.824Z,74.50
2018-12-25T22:00:36.213Z,73.80
2018-12-25T22:03:04.555Z,73.40
2018-12-25T22:05:32.727Z,73.30
2018-12-25T22:08:00.969Z,73.20
2018-12-25T22:10:29.084Z,73.10
2018-12-25T22:12:57.345Z,72.80
2018-12-25T22:15:25.516Z,72.50
2018-12-25T22:17:53.818Z,72.40
2018-12-25T22:20:25.261Z,72.20
2018-12-25T22:22:53.492Z,72.20
2018-12-25T22:25:27.095Z,72.40
2018-12-25T22:27:51.965Z,72.80
2018-12-25T22:30:20.191Z,73.30
2018-12-25T22:32:48.295Z,74.70
2018-12-25T22:35:16.381Z,74.90
2018-12-25T22:37:44.596Z,75.30
2018-12-25T22:40:13.042Z,75.60
2018-12-25T22:42:41.209Z,75.80
2018-12-25T22:45:09.391Z,76.10
2018-12-25T22:47:37.860Z,76.00
2018-12-25T22:50:06.241Z,75.90
2018-12-25T22:52:34.412Z,75.80
2018-12-25T22:55:02.585Z,75.90
2018-12-25T22:57:30.840Z,75.90
2018-12-25T22:59:58.987Z,75.60
2018-12-25T23:02:27.140Z,75.30
2018-12-25T23:04:55.284Z,75.00
2018-12-25T23:07:23.813Z,73.40
2018-12-25T23:09:51.911Z,72.70
2018-12-25T23:12:20.049Z,72.20
2018-12-25T23:14:48.268Z,71.70
2018-12-25T23:17:16.393Z,71.50
2018-12-25T23:19:44.613Z,72.10
2018-12-25T23:22:12.749Z,73.50
2018-12-25T23:24:40.906Z,74.20
2018-12-25T23:27:09.086Z,75.10
2018-12-25T23:29:39.792Z,81.80
2018-12-25T23:32:07.984Z,82.10
2018-12-25T23:34:36.129Z,82.00
2018-12-25T23:37:05.429Z,82.30
2018-12-25T23:39:33.571Z,82.80
2018-12-25T23:42:01.780Z,82.50
2018-12-25T23:44:30.690Z,80.40
2018-12-25T23:46:58.906Z,80.70
2018-12-25T23:49:27.066Z,81.20
2018-12-25T23:51:55.262Z,81.40
2018-12-25T23:54:23.425Z,82.00
2018-12-25T23:56:51.578Z,82.10
2018-12-25T23:59:19.710Z,82.30
